createdAt,value
2022-11-21T00:00:31.170Z,10.97
2022-11-21T00:03:00.198Z,11.02
2022-11-21T00:05:27.889Z,11.02
2022-11-21T00:07:55.144Z,11.04
2022-11-21T00:10:22.745Z,10.95
2022-11-21T00:12:56.220Z,10.82
2022-11-21T00:15:24.187Z,10.83
2022-11-21T00:17:51.471Z,11.04
2022-11-21T00:20:19.726Z,11.27
2022-11-21T00:22:47.200Z,11.04
2022-11-21T00:25:14.537Z,11.31
2022-11-21T00:27:41.762Z,11.48
2022-11-21T00:30:09.987Z,11.47
2022-11-21T00:32:37.238Z,11.32
2022-11-21T00:35:04.697Z,11.35
2022-11-21T00:37:32.393Z,11.33
2022-11-21T00:39:59.515Z,11.10
2022-11-21T00:42:26.629Z,11.10
2022-11-21T00:44:53.993Z,11.15
2022-11-21T00:47:21.089Z,11.41
2022-11-21T00:49:48.207Z,11.33
2022-11-21T00:52:16.223Z,11.40
2022-11-21T00:54:43.320Z,11.37
2022-11-21T00:57:11.206Z,11.42
2022-11-21T00:59:38.598Z,11.27
2022-11-21T01:02:05.756Z,11.20
2022-11-21T01:04:33.356Z,11.28
2022-11-21T01:07:00.819Z,11.08
2022-11-21T01:09:28.774Z,10.84
2022-11-21T01:11:56.396Z,10.86
2022-11-21T01:14:24.049Z,11.28
2022-11-21T01:16:51.228Z,10.88
2022-11-21T01:19:18.380Z,11.03
2022-11-21T01:21:45.757Z,11.11
2022-11-21T01:24:12.884Z,10.77
2022-11-21T01:26:40.244Z,10.96
2022-11-21T01:29:08.842Z,11.00
2022-11-21T01:31:36.245Z,10.86
2022-11-21T01:34:03.376Z,10.76
2022-11-21T01:36:32.157Z,10.70
2022-11-21T01:39:00.255Z,10.68
2022-11-21T01:41:31.220Z,10.85
2022-11-21T01:43:58.889Z,10.93
2022-11-21T01:46:26.187Z,10.87
2022-11-21T01:49:12.091Z,10.82
2022-11-21T01:51:48.640Z,10.80
2022-11-21T01:54:20.791Z,10.91
2022-11-21T01:57:11.513Z,10.86
2022-11-21T01:59:39.988Z,10.96
2022-11-21T02:02:08.029Z,10.82
2022-11-21T02:04:35.521Z,10.73
2022-11-21T02:07:03.524Z,10.79
2022-11-21T02:09:31.000Z,10.80
2022-11-21T02:11:58.987Z,10.84
2022-11-21T02:14:26.486Z,10.93
2022-11-21T02:16:54.117Z,10.81
2022-11-21T02:19:24.773Z,10.83
2022-11-21T02:21:56.125Z,11.12
2022-11-21T02:24:26.662Z,11.15
2022-11-21T02:26:53.983Z,11.00
2022-11-21T02:29:21.092Z,11.00
2022-11-21T02:31:48.484Z,11.08
2022-11-21T02:34:15.672Z,11.15
2022-11-21T02:36:46.251Z,11.00
2022-11-21T02:39:23.974Z,10.60
2022-11-21T02:42:04.658Z,10.68
2022-11-21T02:44:33.947Z,10.62
2022-11-21T02:47:01.046Z,10.53
2022-11-21T02:49:30.795Z,10.62
2022-11-21T02:51:58.173Z,10.80
2022-11-21T02:54:25.545Z,10.80
2022-11-21T02:56:52.914Z,11.04
2022-11-21T02:59:20.279Z,11.27
2022-11-21T03:01:47.368Z,10.85
2022-11-21T03:04:15.159Z,10.48
2022-11-21T03:06:42.576Z,10.70
2022-11-21T03:09:09.704Z,10.61
2022-11-21T03:11:36.882Z,10.84
2022-11-21T03:14:04.269Z,10.73
2022-11-21T03:16:31.374Z,10.85
2022-11-21T03:18:58.632Z,10.51
2022-11-21T03:21:25.991Z,10.67
2022-11-21T03:23:53.143Z,10.59
2022-11-21T03:26:20.307Z,10.74
2022-11-21T03:28:47.675Z,10.77
2022-11-21T03:31:14.812Z,10.54
2022-11-21T03:33:41.916Z,10.56
2022-11-21T03:36:09.386Z,10.58
2022-11-21T03:38:36.483Z,10.60
2022-11-21T03:41:04.730Z,10.58
2022-11-21T03:43:32.108Z,10.64
2022-11-21T03:45:59.229Z,10.54
2022-11-21T03:48:26.342Z,10.44
2022-11-21T03:50:53.791Z,10.27
2022-11-21T03:53:20.913Z,10.21
2022-11-21T03:55:48.155Z,9.37
2022-11-21T03:58:15.662Z,8.59
2022-11-21T04:00:42.765Z,9.06
2022-11-21T04:03:10.145Z,8.57
2022-11-21T04:05:37.257Z,8.60
2022-11-21T04:08:04.436Z,8.72
2022-11-21T04:10:32.334Z,9.40
2022-11-21T04:12:59.606Z,9.70
2022-11-21T04:15:29.009Z,10.02
2022-11-21T04:17:56.358Z,9.96
2022-11-21T04:20:23.492Z,9.78
2022-11-21T04:22:50.595Z,9.81
2022-11-21T04:25:17.958Z,9.70
2022-11-21T04:27:45.045Z,10.04
2022-11-21T04:30:12.152Z,10.04
2022-11-21T04:32:39.519Z,9.97
2022-11-21T04:35:06.921Z,10.11
2022-11-21T04:37:34.069Z,10.04
2022-11-21T04:40:01.461Z,10.08
2022-11-21T04:42:28.627Z,9.95
2022-11-21T04:44:55.750Z,10.15
2022-11-21T04:47:23.113Z,10.35
2022-11-21T04:49:50.222Z,10.18
2022-11-21T04:52:17.323Z,10.24
2022-11-21T04:54:44.709Z,10.33
2022-11-21T04:57:11.809Z,10.43
2022-11-21T04:59:38.934Z,10.39
2022-11-21T05:02:06.337Z,10.20
2022-11-21T05:04:33.437Z,10.46
2022-11-21T05:07:00.562Z,10.56
2022-11-21T05:09:27.958Z,10.40
2022-11-21T05:12:13.900Z,10.39
2022-11-21T05:14:41.338Z,10.36
2022-11-21T05:17:08.444Z,10.50
2022-11-21T05:19:35.570Z,10.41
2022-11-21T05:22:02.975Z,10.53
2022-11-21T05:24:30.314Z,10.59
2022-11-21T05:26:57.693Z,10.70
2022-11-21T05:29:28.065Z,10.51
2022-11-21T05:31:55.525Z,10.47
2022-11-21T05:34:23.136Z,10.65
2022-11-21T05:36:57.326Z,10.38
2022-11-21T05:39:24.713Z,10.67
2022-11-21T05:41:52.720Z,10.74
2022-11-21T05:44:19.837Z,10.73
2022-11-21T05:46:46.969Z,10.86
2022-11-21T05:49:14.346Z,10.68
2022-11-21T05:51:42.456Z,10.66
2022-11-21T05:54:14.814Z,10.51
2022-11-21T05:56:42.352Z,10.73
2022-11-21T05:59:10.396Z,10.84
2022-11-21T06:01:56.340Z,10.24
2022-11-21T06:04:23.724Z,9.92
2022-11-21T06:06:50.870Z,10.37
2022-11-21T06:09:17.958Z,10.67
2022-11-21T06:11:45.672Z,10.56
2022-11-21T06:14:12.784Z,10.65
2022-11-21T06:16:39.887Z,10.63
2022-11-21T06:19:07.295Z,10.56
2022-11-21T06:21:37.298Z,10.69
2022-11-21T06:24:05.596Z,10.73
2022-11-21T06:26:32.964Z,10.75
2022-11-21T06:29:00.071Z,10.74
2022-11-21T06:31:27.330Z,10.48
2022-11-21T06:33:55.585Z,9.94
2022-11-21T06:36:22.751Z,10.15
2022-11-21T06:38:49.873Z,9.68
2022-11-21T06:41:18.076Z,9.72
2022-11-21T06:43:45.256Z,10.03
2022-11-21T06:46:12.605Z,10.16
2022-11-21T06:48:40.134Z,10.47
2022-11-21T06:51:08.377Z,10.26
2022-11-21T06:53:35.957Z,9.96
2022-11-21T06:56:03.780Z,9.80
2022-11-21T06:58:31.097Z,9.42
2022-11-21T07:00:58.363Z,9.77
2022-11-21T07:03:26.833Z,8.10
2022-11-21T07:05:58.478Z,7.92
2022-11-21T07:08:25.833Z,9.47
2022-11-21T07:11:22.944Z,9.11
2022-11-21T07:13:40.308Z,8.69
2022-11-21T07:16:08.072Z,8.41
2022-11-21T07:18:35.477Z,9.01
2022-11-21T07:21:04.651Z,8.99
2022-11-21T07:23:32.006Z,8.40
2022-11-21T07:26:03.048Z,9.31
2022-11-21T07:28:30.621Z,7.85
2022-11-21T07:30:58.005Z,8.08
2022-11-21T07:33:25.121Z,8.52
2022-11-21T07:35:52.514Z,8.51
2022-11-21T07:38:19.910Z,8.53
2022-11-21T07:40:47.024Z,8.52
2022-11-21T07:43:14.531Z,8.12
2022-11-21T07:45:41.633Z,8.93
2022-11-21T07:48:09.679Z,8.28
2022-11-21T07:50:37.071Z,8.70
2022-11-21T07:53:05.092Z,9.13
2022-11-21T07:55:35.223Z,9.72
2022-11-21T07:58:07.589Z,9.78
2022-11-21T08:00:35.397Z,9.35
2022-11-21T08:03:04.018Z,9.38
2022-11-21T08:05:31.499Z,9.39
2022-11-21T08:07:58.628Z,9.97
2022-11-21T08:10:26.016Z,9.31
2022-11-21T08:12:53.113Z,9.70
2022-11-21T08:15:20.236Z,9.25
2022-11-21T08:17:49.102Z,9.59
2022-11-21T08:20:17.163Z,9.39
2022-11-21T08:22:44.299Z,9.98
2022-11-21T08:25:11.831Z,9.71
2022-11-21T08:27:39.144Z,9.05
2022-11-21T08:30:11.052Z,9.47
2022-11-21T08:32:38.496Z,8.31
2022-11-21T08:35:05.819Z,9.15
2022-11-21T08:37:32.916Z,9.52
2022-11-21T08:40:00.816Z,9.52
2022-11-21T08:42:27.945Z,10.00
2022-11-21T08:44:55.046Z,9.55
2022-11-21T08:47:22.734Z,9.31
2022-11-21T08:49:50.149Z,9.83
2022-11-21T08:52:17.504Z,9.50
2022-11-21T08:54:45.022Z,9.91
2022-11-21T08:57:12.227Z,8.97
2022-11-21T08:59:39.368Z,8.13
2022-11-21T09:02:06.815Z,8.10
2022-11-21T09:04:33.997Z,8.06
2022-11-21T09:07:02.067Z,8.66
2022-11-21T09:09:29.560Z,9.04
2022-11-21T09:11:56.740Z,9.18
2022-11-21T09:14:43.256Z,9.16
2022-11-21T09:17:32.374Z,9.41
2022-11-21T09:19:59.502Z,9.73
2022-11-21T09:22:26.912Z,9.49
2022-11-21T09:24:54.138Z,7.99
2022-11-21T09:27:21.311Z,7.83
2022-11-21T09:29:53.942Z,8.03
2022-11-21T09:32:21.533Z,8.69
2022-11-21T09:34:48.987Z,8.72
2022-11-21T09:37:16.084Z,7.44
2022-11-21T09:39:43.214Z,7.73
2022-11-21T09:42:18.640Z,7.18
2022-11-21T09:44:56.047Z,7.42
2022-11-21T09:47:26.538Z,8.05
2022-11-21T09:49:57.092Z,7.72
2022-11-21T09:52:25.956Z,8.44
2022-11-21T09:54:54.522Z,8.19
2022-11-21T09:57:21.845Z,8.12
2022-11-21T09:59:49.234Z,8.94
2022-11-21T10:02:17.293Z,9.15
2022-11-21T10:04:45.257Z,8.52
2022-11-21T10:07:23.132Z,8.02
2022-11-21T10:10:02.535Z,8.88
2022-11-21T10:12:38.767Z,8.02
2022-11-21T10:15:25.266Z,7.67
2022-11-21T10:18:17.287Z,8.36
2022-11-21T10:20:44.599Z,9.26
2022-11-21T10:23:16.304Z,9.12
2022-11-21T10:25:45.767Z,8.79
2022-11-21T10:28:21.898Z,8.86
2022-11-21T10:30:49.123Z,9.45
2022-11-21T10:33:27.225Z,9.00
2022-11-21T10:35:55.617Z,9.87
2022-11-21T10:38:23.855Z,9.79
2022-11-21T10:41:04.300Z,10.05
2022-11-21T10:43:54.930Z,9.24
2022-11-21T10:46:22.189Z,9.20
2022-11-21T10:48:56.300Z,9.60
2022-11-21T10:51:27.773Z,10.29
2022-11-21T10:54:23.540Z,9.62
2022-11-21T10:56:50.860Z,10.05
2022-11-21T10:59:30.779Z,10.39
2022-11-21T11:02:22.144Z,11.03
2022-11-21T11:04:52.416Z,11.00
2022-11-21T11:07:21.409Z,11.56
2022-11-21T11:09:48.611Z,11.82
2022-11-21T11:12:23.018Z,11.68
2022-11-21T11:14:54.376Z,11.53
2022-11-21T11:17:31.636Z,11.61
2022-11-21T11:20:24.669Z,11.99
2022-11-21T11:22:52.302Z,12.16
2022-11-21T11:25:19.411Z,11.68
2022-11-21T11:27:46.509Z,12.17
2022-11-21T11:30:18.931Z,12.38
2022-11-21T11:32:46.042Z,12.25
2022-11-21T11:35:13.340Z,12.61
2022-11-21T11:37:43.835Z,12.70
2022-11-21T11:40:19.425Z,12.45
2022-11-21T11:43:11.756Z,12.71
2022-11-21T11:46:32.982Z,12.78
2022-11-21T11:49:19.675Z,13.18
2022-11-21T11:51:54.621Z,13.14
2022-11-21T11:54:22.895Z,13.16
2022-11-21T11:56:50.092Z,13.00
2022-11-21T11:59:28.720Z,13.34
2022-11-21T12:01:59.227Z,13.34
2022-11-21T12:04:29.604Z,13.67
2022-11-21T12:09:50.402Z,14.09
2022-11-21T12:12:26.800Z,14.01
2022-11-21T12:15:12.671Z,13.78
2022-11-21T12:18:06.220Z,13.47
2022-11-21T12:20:37.234Z,12.62
2022-11-21T12:23:04.367Z,12.13
2022-11-21T12:25:37.088Z,12.43
2022-11-21T12:28:05.398Z,12.52
2022-11-21T12:30:35.483Z,12.38
2022-11-21T12:33:08.852Z,11.89
2022-11-21T12:35:49.450Z,12.34
2022-11-21T12:38:22.565Z,11.89
2022-11-21T12:40:52.968Z,11.91
2022-11-21T12:43:35.157Z,11.82
2022-11-21T12:46:04.479Z,12.54
2022-11-21T12:48:59.160Z,12.62
2022-11-21T12:51:57.933Z,12.47
2022-11-21T12:54:31.226Z,12.81
2022-11-21T12:57:11.790Z,12.48
2022-11-21T12:59:59.170Z,12.25
2022-11-21T13:02:32.460Z,11.96
2022-11-21T13:04:59.676Z,11.74
2022-11-21T13:07:29.625Z,12.00
2022-11-21T13:09:57.285Z,12.10
2022-11-21T13:12:30.668Z,12.21
2022-11-21T13:15:14.071Z,11.85
2022-11-21T13:17:50.550Z,11.45
2022-11-21T13:20:20.906Z,11.89
2022-11-21T13:22:48.800Z,11.48
2022-11-21T13:25:39.231Z,11.31
2022-11-21T13:28:18.881Z,11.61
2022-11-21T13:30:47.011Z,11.67
2022-11-21T13:33:33.033Z,11.63
2022-11-21T13:36:00.762Z,11.67
2022-11-21T13:38:28.141Z,11.69
2022-11-21T13:41:13.826Z,11.60
2022-11-21T13:43:41.205Z,11.74
2022-11-21T13:46:08.448Z,11.55
2022-11-21T13:48:38.834Z,11.57
2022-11-21T13:51:24.470Z,11.62
2022-11-21T13:54:00.404Z,11.55
2022-11-21T13:56:47.146Z,11.37
2022-11-21T13:59:30.378Z,11.87
2022-11-21T14:02:10.098Z,12.06
2022-11-21T14:04:37.397Z,12.53
2022-11-21T14:07:33.809Z,12.07
2022-11-21T14:10:04.610Z,11.97
2022-11-21T14:12:41.012Z,12.25
2022-11-21T14:15:15.241Z,11.85
2022-11-21T14:17:53.542Z,12.49
2022-11-21T14:20:28.243Z,12.09
2022-11-21T14:22:57.213Z,11.94
2022-11-21T14:25:27.590Z,12.02
2022-11-21T14:27:55.074Z,12.40
2022-11-21T14:30:29.172Z,12.75
2022-11-21T14:32:56.714Z,12.05
2022-11-21T14:35:23.917Z,12.06
2022-11-21T14:37:51.192Z,12.11
2022-11-21T14:40:24.703Z,12.24
2022-11-21T14:42:51.797Z,12.38
2022-11-21T14:45:20.381Z,12.54
2022-11-21T14:47:50.590Z,12.95
2022-11-21T14:50:25.353Z,12.88
2022-11-21T14:52:57.324Z,13.22
2022-11-21T14:55:31.888Z,12.65
2022-11-21T14:58:00.277Z,13.17
2022-11-21T15:00:59.266Z,12.76
2022-11-21T15:03:20.866Z,13.03
2022-11-21T15:06:01.977Z,13.22
2022-11-21T15:09:06.044Z,12.89
2022-11-21T15:11:20.717Z,12.72
2022-11-21T15:14:14.480Z,12.59
2022-11-21T15:16:36.230Z,12.63
2022-11-21T15:19:08.686Z,12.28
2022-11-21T15:21:35.942Z,12.09
2022-11-21T15:24:18.723Z,11.89
2022-11-21T15:26:47.286Z,12.28
2022-11-21T15:29:21.313Z,11.38
2022-11-21T15:32:14.000Z,11.72
2022-11-21T15:34:43.876Z,11.68
2022-11-21T15:37:13.138Z,11.39
2022-11-21T15:39:48.469Z,11.61
2022-11-21T15:42:28.146Z,12.09
2022-11-21T15:45:01.073Z,12.16
2022-11-21T15:47:28.726Z,12.00
2022-11-21T15:49:55.850Z,12.68
2022-11-21T15:52:22.954Z,11.75
2022-11-21T15:54:50.535Z,12.05
2022-11-21T15:59:51.123Z,12.39
2022-11-21T16:02:18.263Z,12.87
2022-11-21T16:04:45.646Z,13.03
2022-11-21T16:07:12.815Z,13.07
2022-11-21T16:09:42.386Z,12.69
2022-11-21T16:12:09.782Z,12.23
2022-11-21T16:14:36.923Z,12.21
2022-11-21T16:17:04.265Z,12.33
2022-11-21T16:19:32.119Z,12.48
2022-11-21T16:21:59.406Z,12.62
2022-11-21T16:24:26.522Z,12.75
2022-11-21T16:26:55.423Z,12.32
2022-11-21T16:29:22.694Z,12.04
2022-11-21T16:31:49.943Z,12.46
2022-11-21T16:34:19.010Z,12.32
2022-11-21T16:36:46.292Z,12.32
2022-11-21T16:39:18.209Z,11.80
2022-11-21T16:41:48.186Z,12.79
2022-11-21T16:44:15.944Z,12.91
2022-11-21T16:46:44.265Z,13.17
2022-11-21T16:49:12.185Z,12.75
2022-11-21T16:51:39.528Z,12.67
2022-11-21T16:54:09.153Z,12.96
2022-11-21T16:56:37.339Z,13.17
2022-11-21T16:59:04.699Z,13.03
2022-11-21T17:01:32.238Z,12.90
2022-11-21T17:04:00.026Z,12.73
2022-11-21T17:06:29.655Z,12.70
2022-11-21T17:08:58.894Z,13.06
2022-11-21T17:11:29.443Z,13.18
2022-11-21T17:14:04.305Z,13.13
2022-11-21T17:16:32.571Z,13.20
2022-11-21T17:19:00.574Z,13.24
2022-11-21T17:21:28.089Z,12.93
2022-11-21T17:23:56.012Z,13.09
2022-11-21T17:26:24.555Z,12.64
2022-11-21T17:28:56.746Z,12.78
2022-11-21T17:31:24.857Z,12.91
2022-11-21T17:33:52.861Z,13.04
2022-11-21T17:36:21.349Z,12.98
2022-11-21T17:38:50.843Z,13.05
2022-11-21T17:41:19.049Z,13.09
2022-11-21T17:43:47.238Z,12.91
2022-11-21T17:46:17.204Z,13.14
2022-11-21T17:48:47.463Z,13.22
2022-11-21T17:51:20.045Z,13.16
2022-11-21T17:53:47.957Z,12.98
2022-11-21T17:56:19.376Z,12.80
2022-11-21T17:58:47.191Z,12.97
2022-11-21T18:01:19.653Z,12.75
2022-11-21T18:03:55.637Z,12.89
2022-11-21T18:06:22.940Z,13.00
2022-11-21T18:08:50.685Z,12.97
2022-11-21T18:11:19.472Z,13.08
2022-11-21T18:13:48.137Z,12.75
2022-11-21T18:16:20.181Z,12.98
2022-11-21T18:18:47.793Z,13.00
2022-11-21T18:21:16.693Z,12.81
2022-11-21T18:23:44.453Z,12.90
2022-11-21T18:26:12.766Z,12.98
2022-11-21T18:28:40.055Z,13.15
2022-11-21T18:31:07.894Z,13.24
2022-11-21T18:33:36.165Z,13.38
2022-11-21T18:36:04.560Z,13.44
2022-11-21T18:38:54.890Z,13.29
2022-11-21T18:41:23.731Z,13.24
2022-11-21T18:43:52.376Z,13.25
2022-11-21T18:46:20.404Z,13.46
2022-11-21T18:49:02.047Z,13.31
2022-11-21T18:51:31.949Z,13.41
2022-11-21T18:54:05.569Z,13.58
2022-11-21T18:56:36.884Z,13.44
2022-11-21T18:59:05.905Z,13.30
2022-11-21T19:01:33.880Z,13.28
2022-11-21T19:04:02.825Z,13.32
2022-11-21T19:06:30.599Z,13.10
2022-11-21T19:08:58.596Z,13.19
2022-11-21T19:11:28.885Z,12.77
2022-11-21T19:13:57.653Z,12.80
2022-11-21T19:16:25.966Z,13.11
2022-11-21T19:19:33.748Z,13.15
2022-11-21T19:21:45.964Z,13.21
2022-11-21T19:24:15.176Z,12.75
2022-11-21T19:26:43.128Z,12.70
2022-11-21T19:29:13.074Z,13.02
2022-11-21T19:31:45.720Z,13.22
2022-11-21T19:34:14.191Z,13.02
2022-11-21T19:36:43.382Z,13.10
2022-11-21T19:39:11.581Z,13.17
2022-11-21T19:41:39.641Z,13.14
2022-11-21T19:44:07.537Z,13.29
2022-11-21T19:46:37.474Z,13.27
2022-11-21T19:49:05.713Z,13.21
2022-11-21T19:51:37.802Z,13.30
2022-11-21T19:54:07.193Z,12.79
2022-11-21T19:56:35.536Z,12.93
2022-11-21T19:59:03.479Z,12.83
2022-11-21T20:01:31.795Z,13.09
2022-11-21T20:04:02.269Z,13.08
2022-11-21T20:06:36.134Z,12.89
2022-11-21T20:09:06.191Z,12.74
2022-11-21T20:11:35.581Z,12.75
2022-11-21T20:14:03.319Z,12.94
2022-11-21T20:16:38.085Z,12.97
2022-11-21T20:19:10.287Z,12.97
2022-11-21T20:21:38.719Z,12.96
2022-11-21T20:24:06.817Z,12.90
2022-11-21T20:26:35.923Z,12.74
2022-11-21T20:29:04.209Z,12.85
2022-11-21T20:31:33.162Z,12.55
2022-11-21T20:34:05.457Z,12.38
2022-11-21T20:36:34.825Z,12.51
2022-11-21T20:39:03.777Z,13.05
2022-11-21T20:41:32.772Z,12.37
2022-11-21T20:46:49.436Z,11.97
2022-11-21T20:49:17.804Z,11.96
2022-11-21T20:54:37.649Z,12.27
2022-11-21T20:57:09.216Z,12.35
2022-11-21T20:59:42.230Z,12.29
2022-11-21T21:02:12.813Z,12.29
2022-11-21T21:04:40.696Z,12.52
2022-11-21T21:07:08.836Z,12.48
2022-11-21T21:09:36.464Z,12.07
2022-11-21T21:12:05.076Z,11.71
2022-11-21T21:14:32.214Z,11.81
2022-11-21T21:16:59.377Z,11.88
2022-11-21T21:19:26.918Z,12.16
2022-11-21T21:21:54.378Z,12.36
2022-11-21T21:24:22.133Z,12.22
2022-11-21T21:26:49.952Z,12.30
2022-11-21T21:29:20.623Z,12.40
2022-11-21T21:31:51.633Z,12.32
2022-11-21T21:34:20.191Z,12.47
2022-11-21T21:36:47.366Z,12.26
2022-11-21T21:39:14.531Z,12.48
2022-11-21T21:41:45.958Z,12.54
2022-11-21T21:44:14.023Z,12.50
2022-11-21T21:46:41.528Z,12.59
2022-11-21T21:49:08.633Z,12.84
2022-11-21T21:51:37.398Z,12.71
2022-11-21T21:54:05.005Z,12.60
2022-11-21T21:56:32.436Z,12.71
2022-11-21T21:58:59.701Z,12.66
2022-11-21T22:01:28.025Z,12.89
2022-11-21T22:03:56.108Z,11.90
2022-11-21T22:06:23.219Z,12.31
2022-11-21T22:08:50.439Z,12.50
2022-11-21T22:11:18.942Z,12.49
2022-11-21T22:13:47.372Z,12.76
2022-11-21T22:16:14.674Z,11.36
2022-11-21T22:18:42.744Z,12.19
2022-11-21T22:21:17.126Z,12.12
2022-11-21T22:24:02.936Z,10.50
2022-11-21T22:26:31.734Z,10.46
2022-11-21T22:28:59.110Z,8.83
2022-11-21T22:31:26.240Z,9.86
2022-11-21T22:33:53.537Z,10.66
2022-11-21T22:36:23.030Z,10.09
2022-11-21T22:38:52.520Z,10.81
2022-11-21T22:41:20.447Z,9.62
2022-11-21T22:43:51.536Z,10.51
2022-11-21T22:46:19.196Z,10.66
2022-11-21T22:48:46.575Z,10.23
2022-11-21T22:51:17.738Z,10.21
2022-11-21T22:53:48.004Z,11.16
2022-11-21T22:56:15.831Z,11.25
2022-11-21T22:58:42.966Z,9.99
2022-11-21T23:01:11.140Z,11.18
2022-11-21T23:03:38.736Z,9.25
2022-11-21T23:06:06.788Z,10.52
2022-11-21T23:08:34.469Z,11.05
2022-11-21T23:11:02.963Z,10.50
2022-11-21T23:13:30.098Z,10.94
2022-11-21T23:15:57.303Z,10.34
2022-11-21T23:18:24.665Z,10.26
2022-11-21T23:20:52.380Z,10.58
2022-11-21T23:23:19.638Z,10.35
2022-11-21T23:25:48.024Z,9.84
2022-11-21T23:28:15.133Z,10.31
2022-11-21T23:30:44.414Z,10.42
2022-11-21T23:33:11.909Z,9.94
2022-11-21T23:35:39.153Z,10.67
2022-11-21T23:38:06.421Z,10.69
2022-11-21T23:40:33.867Z,10.26
2022-11-21T23:43:00.974Z,10.75
2022-11-21T23:45:28.112Z,10.44
2022-11-21T23:47:55.748Z,10.78
2022-11-21T23:50:22.857Z,10.77
2022-11-21T23:52:50.139Z,9.83
2022-11-21T23:55:17.628Z,10.42
2022-11-21T23:57:48.343Z,10.58
